Time;durP1;ratioP1;P1;durP2;ratioP2;P2;SDS_P1;SDS_P2;PMS_P1;PMS_P2;Temp;Humidity;BMP_temperature;BMP_pressure;BME280_temperature;BME280_humidity;BME280_pressure;Samples;Min_cycle;Max_cycle;Signal;HPM_P1;HPM_P2
2021/09/27 00:01:17;;;;;;;8.00;6.50;;;17.10;96.30;;;;;;5102726;28;20474;-65
2021/09/27 00:03:46;;;;;;;8.33;7.10;;;17.10;96.50;;;;;;5109980;28;20496;-66
2021/09/27 00:06:14;;;;;;;8.37;6.40;;;17.10;96.60;;;;;;5109424;28;21052;-66
2021/09/27 00:08:45;;;;;;;8.27;6.30;;;17.20;96.70;;;;;;5108634;28;20797;-66
2021/09/27 00:11:20;;;;;;;8.83;6.90;;;17.20;96.40;;;;;;5109057;28;20469;-66
2021/09/27 00:13:52;;;;;;;6.97;6.13;;;17.20;96.50;;;;;;5109575;28;20437;-66
2021/09/27 00:16:23;;;;;;;10.27;7.07;;;17.30;96.30;;;;;;5099204;28;20929;-66
2021/09/27 00:18:50;;;;;;;10.00;7.27;;;17.30;96.10;;;;;;5109732;28;20858;-66
2021/09/27 00:21:23;;;;;;;9.77;7.90;;;17.30;96.20;;;;;;5109382;28;20772;-66
2021/09/27 00:23:51;;;;;;;8.50;7.03;;;17.30;96.40;;;;;;5091955;28;20439;-65
2021/09/27 00:26:23;;;;;;;7.17;6.37;;;17.30;96.30;;;;;;5099265;28;20470;-66
2021/09/27 00:28:55;;;;;;;9.00;6.63;;;17.30;96.30;;;;;;5116587;28;20873;-67
2021/09/27 00:31:24;;;;;;;7.40;5.27;;;17.30;96.40;;;;;;5116200;28;20505;-66
2021/09/27 00:33:51;;;;;;;7.73;6.33;;;17.30;96.50;;;;;;5116627;28;20430;-65
2021/09/27 00:36:20;;;;;;;8.73;6.13;;;17.40;96.60;;;;;;5116130;28;20839;-65
2021/09/27 00:38:48;;;;;;;9.03;6.80;;;17.40;96.50;;;;;;5116081;28;20866;-66
2021/09/27 00:41:20;;;;;;;7.40;6.60;;;17.30;96.10;;;;;;5115928;28;20442;-65
2021/09/27 00:43:48;;;;;;;7.80;5.97;;;17.30;96.20;;;;;;5116155;28;20563;-65
2021/09/27 00:46:21;;;;;;;7.67;6.00;;;17.40;96.10;;;;;;5116253;28;20852;-65
2021/09/27 00:48:50;;;;;;;8.20;5.70;;;17.30;96.00;;;;;;5115955;28;20434;-65
2021/09/27 00:51:25;;;;;;;7.10;5.40;;;17.40;96.30;;;;;;5116188;28;20469;-65
2021/09/27 00:53:57;;;;;;;8.60;6.07;;;17.30;96.20;;;;;;5115563;28;20433;-66
2021/09/27 00:56:29;;;;;;;7.90;5.63;;;17.30;96.40;;;;;;5116117;28;20441;-65
2021/09/27 00:58:58;;;;;;;8.00;6.27;;;17.30;95.70;;;;;;5115446;28;20920;-65
2021/09/27 01:01:26;;;;;;;6.90;5.70;;;17.20;95.80;;;;;;5115909;28;20916;-66
2021/09/27 01:03:55;;;;;;;7.20;5.43;;;17.20;95.90;;;;;;5115263;28;20441;-65
2021/09/27 01:06:50;;;;;;;6.50;4.97;;;17.20;96.00;;;;;;5115755;28;20539;-66
2021/09/27 01:09:36;;;;;;;7.30;5.47;;;17.20;96.10;;;;;;5095392;28;20469;-65
2021/09/27 01:12:19;;;;;;;8.27;7.30;;;17.20;96.20;;;;;;5097139;28;20443;-65
2021/09/27 01:15:08;;;;;;;8.17;5.53;;;17.20;96.20;;;;;;5116063;28;20430;-65
2021/09/27 01:17:47;;;;;;;8.40;5.60;;;17.20;96.20;;;;;;5115017;28;20505;-67
2021/09/27 01:20:53;;;;;;;6.47;5.20;;;17.20;96.10;;;;;;5115494;28;20444;-66
2021/09/27 01:24:06;;;;;;;10.90;5.20;;;17.10;96.20;;;;;;5115444;28;20967;-66
2021/09/27 01:27:02;;;;;;;7.30;5.50;;;17.00;96.30;;;;;;5114973;28;20503;-66
2021/09/27 01:30:16;;;;;;;7.50;5.17;;;17.00;96.30;;;;;;5115407;28;20438;-66
2021/09/27 01:32:48;;;;;;;6.50;4.70;;;16.90;96.60;;;;;;5095048;28;20443;-65
2021/09/27 01:35:31;;;;;;;6.50;5.20;;;16.90;96.60;;;;;;5099665;28;20434;-65
2021/09/27 01:38:18;;;;;;;10.57;5.57;;;16.90;96.80;;;;;;5114517;28;21014;-65
2021/09/27 01:41:00;;;;;;;7.70;6.00;;;16.90;96.70;;;;;;5114517;28;20499;-65
2021/09/27 01:43:32;;;;;;;7.73;5.20;;;16.90;96.70;;;;;;5114854;28;20445;-66
2021/09/27 01:46:05;;;;;;;5.47;4.60;;;16.90;96.80;;;;;;5115318;28;20474;-65
2021/09/27 01:48:50;;;;;;;9.00;5.97;;;16.80;96.70;;;;;;5114462;28;20517;-66
2021/09/27 01:51:24;;;;;;;6.27;5.67;;;16.80;96.80;;;;;;5115096;28;20446;-65
2021/09/27 01:53:58;;;;;;;6.17;4.50;;;16.80;96.90;;;;;;5114062;28;20449;-66
2021/09/27 01:56:32;;;;;;;6.20;4.47;;;16.80;96.90;;;;;;5114911;28;20997;-66
2021/09/27 01:59:09;;;;;;;8.47;6.00;;;16.70;96.90;;;;;;5114472;28;20465;-67
2021/09/27 02:01:46;;;;;;;7.87;5.40;;;16.70;97.40;;;;;;5114783;28;20972;-65
2021/09/27 02:04:21;;;;;;;6.20;5.13;;;16.60;97.30;;;;;;5114489;28;20566;-65
2021/09/27 02:06:51;;;;;;;7.13;5.10;;;16.70;97.10;;;;;;5114643;28;20477;-66
2021/09/27 02:09:22;;;;;;;6.30;4.87;;;16.60;97.20;;;;;;5113997;28;20438;-65
2021/09/27 02:11:54;;;;;;;7.77;6.13;;;16.50;97.20;;;;;;5114749;28;20438;-65
2021/09/27 02:14:29;;;;;;;5.73;4.73;;;16.50;97.50;;;;;;5114214;28;20438;-66
2021/09/27 02:17:03;;;;;;;6.00;4.73;;;16.40;97.70;;;;;;5114582;28;20434;-65
2021/09/27 02:19:41;;;;;;;6.73;4.70;;;16.40;98.00;;;;;;5114439;28;20442;-66
2021/09/27 02:22:15;;;;;;;11.27;4.67;;;16.50;98.10;;;;;;5114472;28;20445;-66
2021/09/27 02:24:51;;;;;;;5.97;4.83;;;16.50;98.10;;;;;;5113912;28;20500;-66
2021/09/27 02:27:18;;;;;;;6.20;4.47;;;16.50;97.80;;;;;;5114305;28;20477;-65
2021/09/27 02:29:46;;;;;;;14.50;4.07;;;16.40;97.60;;;;;;5113684;28;20460;-67
2021/09/27 02:32:21;;;;;;;5.23;4.20;;;16.50;98.00;;;;;;5113940;28;20430;-65
2021/09/27 02:34:56;;;;;;;4.90;4.27;;;16.50;98.10;;;;;;5113570;28;20442;-65
2021/09/27 02:37:31;;;;;;;5.57;4.37;;;16.50;98.10;;;;;;5114067;28;20523;-65
2021/09/27 02:40:08;;;;;;;5.67;4.10;;;16.50;98.00;;;;;;5113662;28;20445;-65
2021/09/27 02:42:39;;;;;;;6.53;5.13;;;16.50;98.40;;;;;;5114387;28;20538;-66
2021/09/27 02:45:09;;;;;;;5.53;4.13;;;16.50;98.40;;;;;;5113796;28;20936;-66
2021/09/27 02:47:42;;;;;;;5.63;4.60;;;16.50;98.10;;;;;;5113759;28;20470;-66
2021/09/27 02:50:17;;;;;;;6.03;3.87;;;16.50;98.10;;;;;;5113071;28;20963;-65
2021/09/27 02:52:49;;;;;;;8.00;4.60;;;16.50;98.00;;;;;;5113570;28;20438;-65
2021/09/27 02:55:20;;;;;;;5.20;4.47;;;16.50;97.80;;;;;;5113404;28;20465;-65
2021/09/27 02:58:09;;;;;;;5.13;4.33;;;16.50;97.60;;;;;;5113502;28;20439;-66
2021/09/27 03:00:48;;;;;;;5.00;4.40;;;16.50;97.50;;;;;;5113801;28;20487;-66
2021/09/27 03:03:24;;;;;;;6.40;4.60;;;16.50;97.60;;;;;;5113777;28;20437;-66
2021/09/27 03:06:08;;;;;;;5.50;4.13;;;16.50;97.50;;;;;;5113161;28;20991;-67
2021/09/27 03:08:48;;;;;;;4.90;3.80;;;16.40;97.70;;;;;;5113184;28;20445;-66
2021/09/27 03:11:31;;;;;;;7.63;5.20;;;16.40;97.90;;;;;;5112986;28;20438;-66
2021/09/27 03:14:11;;;;;;;7.33;4.50;;;16.40;97.90;;;;;;5113701;28;20788;-65
2021/09/27 03:16:49;;;;;;;5.30;4.40;;;16.40;97.70;;;;;;5113062;28;20449;-66
2021/09/27 03:19:34;;;;;;;6.67;4.67;;;16.40;97.40;;;;;;5113348;28;20430;-68
2021/09/27 03:22:13;;;;;;;6.70;5.20;;;16.30;97.50;;;;;;5113102;28;20434;-65
2021/09/27 03:24:56;;;;;;;7.63;5.43;;;16.30;97.50;;;;;;5113204;28;20473;-65
2021/09/27 03:27:36;;;;;;;8.80;7.20;;;16.30;97.40;;;;;;5112666;28;20474;-65
2021/09/27 03:30:11;;;;;;;7.10;5.60;;;16.30;97.40;;;;;;5112742;28;20455;-66
2021/09/27 03:33:00;;;;;;;11.77;5.73;;;16.20;97.40;;;;;;5092749;28;20439;-66
2021/09/27 03:35:38;;;;;;;7.63;5.87;;;16.10;97.60;;;;;;5096221;28;20933;-65
2021/09/27 03:38:10;;;;;;;7.10;5.23;;;16.00;97.60;;;;;;5112680;28;20457;-64
2021/09/27 03:40:53;;;;;;;7.17;5.53;;;16.00;97.70;;;;;;5112513;28;20788;-65
2021/09/27 03:43:29;;;;;;;5.17;4.17;;;16.00;97.50;;;;;;5112923;28;20495;-65
2021/09/27 03:46:07;;;;;;;9.70;5.47;;;15.90;97.50;;;;;;5112718;28;20473;-65
2021/09/27 03:48:42;;;;;;;8.47;5.03;;;15.90;97.60;;;;;;5112781;28;20438;-66
2021/09/27 03:51:16;;;;;;;12.13;10.07;;;15.80;97.70;;;;;;5112390;28;20425;-65
2021/09/27 03:53:49;;;;;;;7.27;6.47;;;15.80;97.90;;;;;;5112637;28;20917;-66
2021/09/27 03:56:23;;;;;;;7.60;5.00;;;15.80;98.10;;;;;;5112147;28;20438;-65
2021/09/27 03:58:54;;;;;;;7.17;5.77;;;15.90;98.10;;;;;;5112587;28;20430;-65
2021/09/27 04:01:34;;;;;;;6.33;4.30;;;15.90;97.90;;;;;;5112022;28;20438;-65
2021/09/27 04:04:21;;;;;;;4.60;3.60;;;15.90;97.70;;;;;;5112529;28;20770;-66
2021/09/27 04:07:04;;;;;;;4.87;3.47;;;15.80;97.30;;;;;;5112787;28;20508;-65
2021/09/27 04:09:43;;;;;;;5.90;4.20;;;15.70;96.70;;;;;;5112684;28;20442;-69
2021/09/27 04:12:34;;;;;;;25.00;6.47;;;15.70;96.50;;;;;;5112950;28;20437;-65
2021/09/27 04:15:11;;;;;;;4.70;3.80;;;15.70;96.50;;;;;;5092846;28;20439;-65
2021/09/27 04:17:50;;;;;;;5.23;3.93;;;15.60;96.50;;;;;;5092284;28;20427;-67
2021/09/27 04:20:23;;;;;;;4.33;3.93;;;15.50;96.80;;;;;;5092720;28;20453;-65
2021/09/27 04:23:08;;;;;;;4.03;3.13;;;15.50;96.90;;;;;;5103994;28;20442;-65
2021/09/27 04:25:44;;;;;;;4.50;3.90;;;15.50;96.80;;;;;;5112273;28;20430;-67
2021/09/27 04:28:54;;;;;;;4.50;3.87;;;15.50;96.80;;;;;;5112400;28;20474;-65
2021/09/27 04:31:35;;;;;;;5.67;3.13;;;15.40;96.50;;;;;;5053147;28;20478;-65
2021/09/27 04:34:24;;;;;;;3.50;2.20;;;15.40;96.20;;;;;;5095958;28;20434;-65
2021/09/27 04:36:57;;;;;;;4.13;3.10;;;15.30;96.20;;;;;;5112192;28;20813;-66
2021/09/27 04:39:30;;;;;;;8.00;3.57;;;15.30;96.30;;;;;;5112586;28;20434;-65
2021/09/27 04:42:29;;;;;;;3.93;3.30;;;15.30;96.40;;;;;;5112426;28;20437;-65
2021/09/27 04:45:11;;;;;;;3.90;2.60;;;15.30;96.60;;;;;;5112121;28;20465;-65
2021/09/27 04:47:47;;;;;;;5.50;2.80;;;15.30;96.70;;;;;;5112027;28;20584;-66
2021/09/27 04:50:33;;;;;;;5.23;3.77;;;15.30;96.60;;;;;;5112525;28;20512;-66
2021/09/27 04:53:20;;;;;;;2.80;1.90;;;15.20;96.90;;;;;;5112324;28;20442;-66
2021/09/27 04:56:07;;;;;;;7.70;3.80;;;15.30;97.30;;;;;;5112010;28;20437;-64
2021/09/27 04:58:49;;;;;;;5.70;4.57;;;15.20;97.10;;;;;;5112604;28;20430;-65
2021/09/27 05:01:37;;;;;;;5.93;5.10;;;15.20;97.80;;;;;;5112122;28;20441;-65
2021/09/27 05:04:29;;;;;;;4.20;3.17;;;15.20;98.00;;;;;;5112154;28;20946;-65
2021/09/27 05:07:22;;;;;;;6.70;3.40;;;15.30;97.90;;;;;;5112065;28;20478;-65
2021/09/27 05:10:04;;;;;;;6.27;3.77;;;15.30;98.00;;;;;;5111951;28;20539;-65
2021/09/27 05:13:05;;;;;;;9.17;6.23;;;15.30;98.30;;;;;;5112402;28;20430;-65
2021/09/27 05:16:04;;;;;;;9.40;6.53;;;15.30;98.30;;;;;;5115749;28;20437;-65
2021/09/27 05:19:08;;;;;;;7.73;5.87;;;15.30;98.30;;;;;;5105531;28;20431;-65
2021/09/27 05:21:48;;;;;;;8.37;4.60;;;15.40;98.50;;;;;;5102914;28;20516;-66
2021/09/27 05:24:53;;;;;;;11.90;9.47;;;15.40;98.60;;;;;;5094840;28;20474;-66
2021/09/27 05:27:46;;;;;;;13.67;10.13;;;15.50;98.20;;;;;;5100950;28;20462;-65
2021/09/27 05:30:22;;;;;;;11.07;7.53;;;15.50;98.30;;;;;;5111611;28;20474;-66
2021/09/27 05:32:59;;;;;;;10.73;7.00;;;15.50;97.90;;;;;;5094742;28;20458;-65
2021/09/27 05:35:47;;;;;;;13.07;9.13;;;15.50;97.80;;;;;;5111092;28;20442;-65
2021/09/27 05:38:23;;;;;;;28.03;20.23;;;15.50;97.80;;;;;;5094770;28;20510;-66
2021/09/27 05:41:03;;;;;;;28.10;24.20;;;15.50;98.10;;;;;;5094657;28;20929;-66
2021/09/27 05:43:46;;;;;;;31.70;27.93;;;15.60;98.20;;;;;;5096646;28;20465;-65
2021/09/27 05:46:33;;;;;;;31.90;26.50;;;15.60;97.90;;;;;;5106075;28;20865;-66
2021/09/27 05:49:07;;;;;;;14.90;12.53;;;15.70;97.80;;;;;;5099180;28;20430;-65
2021/09/27 05:51:41;;;;;;;12.70;8.40;;;15.70;98.20;;;;;;5094662;28;20446;-65
2021/09/27 05:54:34;;;;;;;8.73;7.60;;;15.70;98.40;;;;;;5100986;28;20437;-65
2021/09/27 05:57:09;;;;;;;8.30;7.20;;;15.80;98.40;;;;;;5108405;28;20441;-66
2021/09/27 05:59:48;;;;;;;14.60;9.37;;;15.80;98.10;;;;;;5104162;28;20434;-66
2021/09/27 06:02:31;;;;;;;37.90;26.30;;;15.90;98.50;;;;;;5098132;28;21008;-66
2021/09/27 06:05:14;;;;;;;21.90;16.50;;;15.90;98.50;;;;;;5112004;28;20434;-65
2021/09/27 06:07:47;;;;;;;18.47;14.50;;;15.90;98.60;;;;;;5112315;28;20513;-65
2021/09/27 06:10:35;;;;;;;21.37;16.63;;;16.00;98.70;;;;;;5094358;28;20439;-65
2021/09/27 06:13:19;;;;;;;24.43;20.07;;;16.10;98.30;;;;;;5102313;28;20444;-66
2021/09/27 06:15:51;;;;;;;33.37;25.90;;;16.20;97.90;;;;;;5094150;28;20525;-67
2021/09/27 06:18:34;;;;;;;25.90;20.20;;;16.20;97.80;;;;;;5102717;28;20431;-66
2021/09/27 06:21:17;;;;;;;10.20;8.10;;;16.30;97.80;;;;;;5093663;28;20477;-66
2021/09/27 06:24:00;;;;;;;11.20;7.40;;;16.40;97.90;;;;;;5110673;28;20434;-64
2021/09/27 06:26:33;;;;;;;8.93;7.13;;;16.50;97.10;;;;;;5094062;28;20435;-65
2021/09/27 06:29:04;;;;;;;8.07;6.53;;;16.60;97.50;;;;;;5095165;28;20808;-66
2021/09/27 06:31:37;;;;;;;66.77;51.10;;;16.70;97.80;;;;;;5110151;28;20475;-66
2021/09/27 06:34:10;;;;;;;23.10;18.70;;;16.80;97.00;;;;;;5112448;28;20848;-65
2021/09/27 06:36:40;;;;;;;11.53;8.53;;;16.80;96.30;;;;;;5098193;28;20439;-66
2021/09/27 06:39:14;;;;;;;18.50;8.57;;;16.80;96.50;;;;;;5094031;28;20443;-67
2021/09/27 06:41:47;;;;;;;51.90;42.20;;;17.00;97.00;;;;;;5111395;28;20512;-65
2021/09/27 06:44:14;;;;;;;26.97;24.17;;;17.30;97.30;;;;;;5103806;28;20442;-66
2021/09/27 06:46:41;;;;;;;22.60;19.00;;;17.40;96.50;;;;;;5111541;28;20443;-66
2021/09/27 06:49:09;;;;;;;11.90;9.90;;;17.60;96.10;;;;;;5109972;28;20528;-66
2021/09/27 06:51:41;;;;;;;9.50;7.23;;;17.80;95.90;;;;;;5094158;28;20789;-67
2021/09/27 06:54:14;;;;;;;9.27;8.17;;;18.10;96.50;;;;;;5104407;28;20524;-65
2021/09/27 06:56:47;;;;;;;8.77;7.90;;;18.70;95.20;;;;;;5092286;28;20845;-70
2021/09/27 06:59:15;;;;;;;7.23;5.70;;;19.30;94.00;;;;;;5097496;28;20435;-67
2021/09/27 07:01:47;;;;;;;10.10;7.63;;;19.80;91.80;;;;;;5105130;28;20441;-68
2021/09/27 07:04:19;;;;;;;8.00;5.97;;;20.20;91.00;;;;;;5104614;28;20875;-67
2021/09/27 07:06:48;;;;;;;7.07;6.33;;;20.70;88.80;;;;;;5095250;28;20435;-66
2021/09/27 07:09:17;;;;;;;7.90;7.10;;;20.90;82.40;;;;;;5103446;28;20809;-66
2021/09/27 07:11:46;;;;;;;6.50;5.83;;;21.00;82.80;;;;;;5111549;28;20855;-65
2021/09/27 07:14:21;;;;;;;7.63;6.27;;;20.80;81.10;;;;;;5113256;28;20600;-65
2021/09/27 07:16:50;;;;;;;6.13;5.57;;;20.60;83.30;;;;;;5113202;28;20516;-65
2021/09/27 07:19:22;;;;;;;10.40;8.90;;;20.60;83.10;;;;;;5113445;28;20446;-66
2021/09/27 07:21:57;;;;;;;16.90;12.23;;;20.70;82.30;;;;;;5113596;28;20987;-66
2021/09/27 07:24:29;;;;;;;13.83;10.63;;;20.90;82.80;;;;;;5112815;28;20512;-64
2021/09/27 07:26:58;;;;;;;7.30;6.60;;;21.10;83.50;;;;;;5113496;28;20470;-65
2021/09/27 07:29:30;;;;;;;6.43;5.70;;;22.00;89.00;;;;;;5113546;28;20520;-66
2021/09/27 07:31:59;;;;;;;5.80;4.70;;;24.60;81.80;;;;;;5113558;28;20541;-66
2021/09/27 07:34:31;;;;;;;5.00;4.33;;;27.50;64.30;;;;;;5113256;28;20514;-65
2021/09/27 07:37:11;;;;;;;6.43;4.97;;;29.50;53.40;;;;;;5112636;28;20513;-65
2021/09/27 07:39:46;;;;;;;5.47;4.60;;;29.00;49.90;;;;;;5112695;28;20521;-66
2021/09/27 07:42:19;;;;;;;5.90;4.67;;;28.30;51.60;;;;;;5113358;28;20983;-65
2021/09/27 07:44:46;;;;;;;5.20;4.23;;;28.30;56.70;;;;;;5113308;28;20954;-67
2021/09/27 07:47:15;;;;;;;4.57;4.00;;;29.60;54.20;;;;;;5112971;28;20470;-65
2021/09/27 07:49:45;;;;;;;4.67;3.70;;;31.90;50.00;;;;;;5112915;28;20491;-66
2021/09/27 07:52:14;;;;;;;8.03;5.00;;;34.10;47.50;;;;;;5113230;28;20449;-66
2021/09/27 07:54:41;;;;;;;7.20;6.60;;;35.60;38.40;;;;;;5113012;28;20469;-66
2021/09/27 07:57:08;;;;;;;9.03;8.23;;;36.90;37.70;;;;;;5113159;28;20861;-66
2021/09/27 07:59:40;;;;;;;6.13;4.97;;;37.10;31.10;;;;;;5112737;28;20842;-67
2021/09/27 08:02:08;;;;;;;6.10;5.03;;;36.10;30.40;;;;;;5113136;28;20521;-67
2021/09/27 08:04:40;;;;;;;5.23;4.33;;;36.10;32.90;;;;;;5113369;28;20555;-67
2021/09/27 08:07:09;;;;;;;6.87;4.33;;;37.30;32.40;;;;;;5112692;28;20513;-65
2021/09/27 08:09:40;;;;;;;5.50;5.00;;;38.90;27.30;;;;;;5112578;28;20426;-66
2021/09/27 08:12:10;;;;;;;4.33;3.80;;;40.00;27.90;;;;;;5112294;28;20469;-66
2021/09/27 08:14:39;;;;;;;6.43;4.13;;;41.20;27.30;;;;;;5112899;28;20517;-66
2021/09/27 08:17:11;;;;;;;4.97;4.17;;;42.20;24.50;;;;;;5112681;28;20785;-66
2021/09/27 08:19:42;;;;;;;4.63;4.23;;;43.20;24.70;;;;;;5113039;28;20529;-66
2021/09/27 08:22:10;;;;;;;4.60;4.20;;;44.10;23.90;;;;;;5112149;28;20779;-66
2021/09/27 08:24:38;;;;;;;5.30;4.80;;;44.80;22.40;;;;;;5112492;28;20913;-66
2021/09/27 08:27:06;;;;;;;6.57;4.33;;;45.50;21.20;;;;;;5112586;28;20438;-66
2021/09/27 08:29:33;;;;;;;6.50;4.27;;;45.90;19.80;;;;;;5112174;28;20430;-66
2021/09/27 08:32:03;;;;;;;4.87;4.47;;;46.10;18.70;;;;;;5108567;28;20521;-67
2021/09/27 08:34:38;;;;;;;5.10;3.73;;;46.40;18.70;;;;;;5111689;28;20481;-67
2021/09/27 08:37:10;;;;;;;4.50;3.90;;;46.90;18.40;;;;;;5111423;28;20887;-66
2021/09/27 08:39:46;;;;;;;4.30;3.90;;;47.30;18.50;;;;;;5111625;28;20469;-67
2021/09/27 08:42:19;;;;;;;4.27;3.87;;;47.60;17.70;;;;;;5111245;28;20442;-66
2021/09/27 08:44:54;;;;;;;3.97;3.57;;;47.80;17.00;;;;;;5111886;28;20841;-66
2021/09/27 08:47:28;;;;;;;5.60;4.30;;;47.80;17.40;;;;;;5111809;28;20924;-66
2021/09/27 08:49:58;;;;;;;4.53;4.13;;;48.60;17.70;;;;;;5112167;28;20769;-66
2021/09/27 08:52:30;;;;;;;5.40;3.83;;;49.00;15.70;;;;;;5111916;28;20445;-66
2021/09/27 08:55:09;;;;;;;4.70;4.30;;;49.20;15.80;;;;;;5112431;28;20442;-66
2021/09/27 08:57:44;;;;;;;4.30;3.63;;;49.40;16.40;;;;;;5115303;28;20516;-66
2021/09/27 09:00:30;;;;;;;3.80;3.50;;;50.00;15.40;;;;;;5114677;28;20995;-66
2021/09/27 09:03:02;;;;;;;3.83;3.53;;;50.20;14.90;;;;;;5113863;28;20487;-66
2021/09/27 09:05:36;;;;;;;3.97;3.67;;;50.60;14.70;;;;;;5112857;28;20445;-66
2021/09/27 09:08:06;;;;;;;6.17;3.63;;;51.10;14.70;;;;;;5113607;28;20563;-67
2021/09/27 09:10:45;;;;;;;4.30;3.90;;;51.70;14.00;;;;;;5114995;28;20916;-67
2021/09/27 09:13:21;;;;;;;6.23;4.00;;;52.10;14.20;;;;;;5114801;28;20500;-67
2021/09/27 09:15:54;;;;;;;4.10;3.70;;;52.30;13.30;;;;;;5114828;28;20880;-66
2021/09/27 09:18:24;;;;;;;4.73;4.00;;;52.50;14.10;;;;;;5114874;28;20434;-68
2021/09/27 09:20:55;;;;;;;6.73;4.57;;;52.90;13.90;;;;;;5114697;28;20449;-67
2021/09/27 09:23:31;;;;;;;4.70;4.30;;;53.20;13.00;;;;;;5113753;28;20932;-67
2021/09/27 09:26:00;;;;;;;4.80;3.80;;;;;;;;;;5115141;28;20444;-67
2021/09/27 09:28:27;;;;;;;4.53;4.00;;;;;;;;;;5114990;28;20513;-67
2021/09/27 09:30:56;;;;;;;4.43;4.10;;;;;;;;;;5114695;28;20889;-67
2021/09/27 09:33:43;;;;;;;5.20;4.03;;;53.50;13.30;;;;;;5114398;28;20438;-66
2021/09/27 09:36:15;;;;;;;4.13;3.73;;;54.50;12.30;;;;;;5113037;28;20525;-67
2021/09/27 09:38:50;;;;;;;3.70;3.40;;;54.80;11.00;;;;;;5114286;28;20807;-67
2021/09/27 09:41:49;;;;;;;4.00;3.60;;;55.10;10.10;;;;;;5114686;28;20465;-67
2021/09/27 09:44:24;;;;;;;3.50;3.20;;;55.30;10.40;;;;;;5114376;28;20573;-66
2021/09/27 09:47:00;;;;;;;4.30;3.90;;;55.30;11.50;;;;;;5114629;28;20994;-66
2021/09/27 09:49:48;;;;;;;3.90;3.50;;;55.50;10.70;;;;;;5114062;28;20990;-67
2021/09/27 09:52:24;;;;;;;4.50;4.10;;;55.30;10.50;;;;;;5113940;28;20481;-66
2021/09/27 09:54:54;;;;;;;3.83;3.50;;;55.30;11.10;;;;;;5114494;28;20520;-67
2021/09/27 09:57:31;;;;;;;6.33;3.90;;;55.60;11.00;;;;;;5114463;28;20480;-66
2021/09/27 10:00:07;;;;;;;4.73;4.33;;;56.10;10.90;;;;;;5113780;28;20475;-66
2021/09/27 10:02:37;;;;;;;4.00;3.70;;;56.30;10.20;;;;;;5114218;28;20460;-67
2021/09/27 10:05:08;;;;;;;4.00;3.60;;;56.20;10.80;;;;;;5114382;28;20526;-67
2021/09/27 10:07:46;;;;;;;4.30;4.00;;;56.20;10.20;;;;;;5113888;28;20430;-67
2021/09/27 10:10:32;;;;;;;5.30;3.87;;;56.50;10.10;;;;;;5113665;28;20448;-67
2021/09/27 10:13:01;;;;;;;5.90;3.77;;;56.90;10.40;;;;;;5112163;28;20445;-67
2021/09/27 10:15:44;;;;;;;4.57;4.17;;;56.40;9.80;;;;;;5112248;28;20430;-67
2021/09/27 10:18:33;;;;;;;6.53;4.83;;;56.50;10.10;;;;;;5113137;28;20522;-67
2021/09/27 10:21:23;;;;;;;3.80;3.50;;;56.60;9.70;;;;;;5107461;28;20450;-67
2021/09/27 10:23:55;;;;;;;3.77;3.47;;;57.10;10.30;;;;;;5110808;28;20462;-66
2021/09/27 10:26:29;;;;;;;4.17;3.77;;;57.70;10.90;;;;;;5113868;28;20811;-66
2021/09/27 10:29:01;;;;;;;3.90;3.50;;;58.10;10.10;;;;;;5111304;28;20521;-66
2021/09/27 10:31:28;;;;;;;4.87;4.33;;;58.30;9.80;;;;;;5113409;28;20442;-66
2021/09/27 10:34:00;;;;;;;3.93;3.63;;;58.30;9.10;;;;;;5113570;28;20522;-66
2021/09/27 10:36:34;;;;;;;4.77;4.37;;;58.20;9.40;;;;;;5113740;28;20942;-66
2021/09/27 10:39:04;;;;;;;5.63;3.80;;;58.40;9.30;;;;;;5113502;28;20481;-69
2021/09/27 10:41:35;;;;;;;4.33;3.73;;;58.60;9.70;;;;;;5112989;28;20430;-67
2021/09/27 10:44:09;;;;;;;6.60;4.23;;;58.80;9.50;;;;;;5113260;28;20545;-66
2021/09/27 10:46:39;;;;;;;5.40;4.90;;;59.00;9.10;;;;;;5113335;28;20529;-66
2021/09/27 10:49:11;;;;;;;4.00;3.70;;;58.90;9.40;;;;;;5113496;28;20882;-66
2021/09/27 10:51:41;;;;;;;3.83;3.53;;;59.20;9.00;;;;;;5112867;28;20518;-66
2021/09/27 10:54:23;;;;;;;3.90;3.60;;;59.50;8.50;;;;;;5113172;28;20528;-67
2021/09/27 10:56:52;;;;;;;4.50;4.10;;;59.80;9.00;;;;;;5109938;28;20516;-66
2021/09/27 10:59:34;;;;;;;5.73;3.60;;;60.10;8.70;;;;;;5109194;28;20477;-66
2021/09/27 11:02:28;;;;;;;3.40;3.10;;;60.20;8.00;;;;;;5110533;28;20949;-66
2021/09/27 11:05:02;;;;;;;4.53;4.13;;;59.60;7.90;;;;;;5110021;28;20870;-66
2021/09/27 11:07:35;;;;;;;4.40;4.00;;;59.50;9.10;;;;;;5113183;28;20528;-66
2021/09/27 11:10:15;;;;;;;4.30;3.93;;;59.60;9.10;;;;;;5112926;28;20525;-67
2021/09/27 11:12:44;;;;;;;4.30;3.93;;;59.80;8.80;;;;;;5112046;28;20483;-67
2021/09/27 11:15:22;;;;;;;4.23;3.83;;;60.00;8.90;;;;;;5112500;28;20761;-66
2021/09/27 11:18:02;;;;;;;3.93;3.63;;;60.10;8.60;;;;;;5107541;28;20443;-66
2021/09/27 11:21:05;;;;;;;4.57;4.27;;;60.00;8.90;;;;;;5109734;28;20440;-67
2021/09/27 11:23:35;;;;;;;4.97;4.03;;;59.80;8.20;;;;;;5108507;28;20524;-67
2021/09/27 11:26:32;;;;;;;4.23;3.83;;;59.60;8.90;;;;;;5111880;28;20449;-66
2021/09/27 11:29:31;;;;;;;5.30;4.80;;;59.70;8.70;;;;;;5108892;28;20936;-67
2021/09/27 11:32:28;;;;;;;4.53;4.10;;;59.40;8.80;;;;;;5108768;28;20434;-66
2021/09/27 11:34:59;;;;;;;4.60;4.20;;;59.20;8.90;;;;;;5108391;28;20426;-66
2021/09/27 11:37:29;;;;;;;4.60;4.20;;;59.20;9.30;;;;;;5108546;28;20984;-66
2021/09/27 11:40:25;;;;;;;4.27;3.87;;;59.20;9.20;;;;;;5108244;28;20484;-66
2021/09/27 11:42:58;;;;;;;4.73;4.30;;;59.40;9.00;;;;;;5108455;28;20793;-68
2021/09/27 11:45:37;;;;;;;4.80;3.67;;;59.70;8.40;;;;;;5111888;28;20912;-67
2021/09/27 11:48:10;;;;;;;4.73;4.33;;;59.60;8.90;;;;;;5109657;28;20526;-66
2021/09/27 11:51:19;;;;;;;4.70;4.30;;;59.60;8.80;;;;;;5111796;28;20445;-66
2021/09/27 11:54:11;;;;;;;3.87;3.57;;;59.70;8.70;;;;;;5082025;28;21700;-67
2021/09/27 11:56:46;;;;;;;5.27;4.60;;;59.30;8.90;;;;;;5110405;28;20749;-66
2021/09/27 11:59:22;;;;;;;4.83;4.40;;;59.10;8.80;;;;;;5112075;28;20489;-66
2021/09/27 12:01:57;;;;;;;4.10;3.80;;;58.70;8.50;;;;;;5112102;28;20777;-66
2021/09/27 12:04:39;;;;;;;5.43;4.93;;;57.40;8.10;;;;;;5110035;28;20438;-66
2021/09/27 12:07:11;;;;;;;5.00;4.60;;;56.30;9.60;;;;;;5110070;28;20521;-66
2021/09/27 12:09:44;;;;;;;5.37;4.97;;;56.10;9.70;;;;;;5111977;28;20442;-67
2021/09/27 12:12:22;;;;;;;5.07;4.43;;;55.10;9.20;;;;;;5111518;28;20434;-66
2021/09/27 12:14:51;;;;;;;4.20;3.90;;;53.90;9.90;;;;;;5111801;28;20524;-66
2021/09/27 12:17:23;;;;;;;4.50;4.10;;;53.40;10.20;;;;;;5111616;28;20841;-65
2021/09/27 12:19:56;;;;;;;5.53;5.00;;;53.00;9.60;;;;;;5111963;28;20572;-65
2021/09/27 12:22:28;;;;;;;5.57;4.57;;;50.10;10.00;;;;;;5112073;28;20525;-67
2021/09/27 12:24:55;;;;;;;5.50;5.00;;;47.00;12.00;;;;;;5116071;28;20441;-67
2021/09/27 12:27:24;;;;;;;6.50;5.90;;;44.40;14.20;;;;;;5116142;28;20530;-67
2021/09/27 12:29:56;;;;;;;6.10;5.00;;;42.30;16.30;;;;;;5115806;28;20445;-66
2021/09/27 12:32:31;;;;;;;6.10;5.07;;;40.40;18.40;;;;;;5115717;28;20442;-66
2021/09/27 12:35:00;;;;;;;5.23;4.73;;;38.70;19.80;;;;;;5116430;28;20524;-67
2021/09/27 12:37:34;;;;;;;5.27;4.77;;;37.40;21.50;;;;;;5114427;28;20461;-66
2021/09/27 12:40:01;;;;;;;5.40;4.87;;;37.50;24.10;;;;;;5114799;28;20485;-68
2021/09/27 12:42:36;;;;;;;5.23;4.80;;;38.80;21.50;;;;;;5115599;28;20471;-66
2021/09/27 12:45:14;;;;;;;5.63;5.13;;;37.90;20.80;;;;;;5115710;28;20556;-66
2021/09/27 12:47:42;;;;;;;5.23;4.73;;;38.30;22.40;;;;;;5113949;28;20436;-66
2021/09/27 12:50:11;;;;;;;5.73;5.07;;;39.20;22.50;;;;;;5113620;28;20456;-66
2021/09/27 12:52:43;;;;;;;6.73;4.70;;;40.30;21.20;;;;;;5115212;28;20518;-66
2021/09/27 12:55:13;;;;;;;8.33;4.73;;;40.90;20.80;;;;;;5113179;28;20434;-66
2021/09/27 12:57:43;;;;;;;6.70;4.50;;;41.30;20.40;;;;;;5115524;28;20867;-66
2021/09/27 13:00:19;;;;;;;5.67;4.90;;;40.80;20.00;;;;;;5115056;28;20521;-66
2021/09/27 13:02:47;;;;;;;5.10;4.70;;;39.30;20.90;;;;;;5111431;28;20516;-67
2021/09/27 13:05:17;;;;;;;5.17;4.77;;;38.10;21.50;;;;;;5113633;28;20521;-66
2021/09/27 13:07:47;;;;;;;6.60;5.77;;;37.00;22.00;;;;;;5113727;28;20442;-66
2021/09/27 13:10:30;;;;;;;7.30;5.17;;;36.00;23.10;;;;;;5114917;28;20516;-66
2021/09/27 13:13:07;;;;;;;6.20;5.60;;;34.90;24.20;;;;;;5112784;28;20532;-65
2021/09/27 13:15:38;;;;;;;4.90;4.40;;;34.00;25.50;;;;;;5115213;28;20520;-66
2021/09/27 13:18:10;;;;;;;5.73;5.23;;;33.30;27.20;;;;;;5114982;28;20517;-66
2021/09/27 13:20:46;;;;;;;5.70;4.43;;;32.80;28.10;;;;;;5114402;28;20517;-66
2021/09/27 13:23:15;;;;;;;5.37;4.87;;;32.50;28.20;;;;;;5114539;28;20438;-68
2021/09/27 13:25:48;;;;;;;5.83;5.33;;;32.20;27.80;;;;;;5114707;28;20514;-66
2021/09/27 13:28:24;;;;;;;6.13;5.57;;;31.70;27.70;;;;;;5114426;28;20438;-66
2021/09/27 13:31:05;;;;;;;5.53;4.90;;;31.20;28.20;;;;;;5114812;28;20445;-66
2021/09/27 13:33:38;;;;;;;5.97;5.37;;;30.80;29.70;;;;;;5111434;28;20434;-66
2021/09/27 13:36:10;;;;;;;6.23;5.47;;;30.30;30.00;;;;;;5113746;28;20971;-65